Time;durP1;ratioP1;P1;durP2;ratioP2;P2;SDS_P1;SDS_P2;PMS_P1;PMS_P2;Temp;Humidity;BMP_temperature;BMP_pressure;BME280_temperature;BME280_humidity;BME280_pressure;Samples;Min_cycle;Max_cycle;Signal;HPM_P1;HPM_P2
2022/09/12 00:00:28;;;;;;;4.00;0.70;;;20.50;67.10;;;;;;5093003;28;20059;-79
2022/09/12 00:02:54;;;;;;;5.60;0.60;;;20.50;66.90;;;;;;5092890;28;20027;-78
2022/09/12 00:05:21;;;;;;;4.57;0.55;;;20.50;66.80;;;;;;5093103;28;20474;-79
2022/09/12 00:07:47;;;;;;;4.32;0.65;;;20.50;66.70;;;;;;5092356;28;20407;-77
2022/09/12 00:10:12;;;;;;;2.30;0.43;;;20.50;66.60;;;;;;5091985;28;20032;-79
2022/09/12 00:12:38;;;;;;;5.28;0.60;;;20.50;66.40;;;;;;5092100;28;20024;-78
2022/09/12 00:15:05;;;;;;;5.20;0.47;;;20.50;66.30;;;;;;5092668;28;20039;-78
2022/09/12 00:17:33;;;;;;;4.75;0.52;;;20.40;66.30;;;;;;5092623;28;20023;-79
2022/09/12 00:19:59;;;;;;;2.25;0.40;;;20.40;66.20;;;;;;5091526;28;20034;-78
2022/09/12 00:22:25;;;;;;;7.60;0.60;;;20.40;66.10;;;;;;5091888;28;20389;-79
2022/09/12 00:24:50;;;;;;;1.35;0.40;;;20.40;66.10;;;;;;5092640;28;20051;-79
2022/09/12 00:27:16;;;;;;;5.78;0.45;;;20.40;66.20;;;;;;5091855;28;20047;-77
2022/09/12 00:29:42;;;;;;;2.47;0.40;;;20.40;66.10;;;;;;5091589;28;20113;-79
2022/09/12 00:32:08;;;;;;;0.50;0.30;;;20.40;65.90;;;;;;5090989;28;20024;-78
2022/09/12 00:34:34;;;;;;;2.60;0.40;;;20.50;65.90;;;;;;5092377;28;20043;-78
2022/09/12 00:37:00;;;;;;;2.00;0.60;;;20.50;65.80;;;;;;5092125;28;20095;-79
2022/09/12 00:39:26;;;;;;;2.58;0.50;;;20.40;65.60;;;;;;5092028;28;20138;-78
2022/09/12 00:41:52;;;;;;;1.17;0.50;;;20.50;65.80;;;;;;5091964;28;20243;-79
2022/09/12 00:44:21;;;;;;;6.78;0.68;;;20.40;65.80;;;;;;5092102;28;20491;-79
2022/09/12 00:47:10;;;;;;;3.33;0.70;;;20.40;66.90;;;;;;5091507;28;20139;-79
2022/09/12 00:49:49;;;;;;;6.20;0.80;;;20.30;67.80;;;;;;5090749;28;20044;-78
2022/09/12 00:52:40;;;;;;;3.78;0.60;;;20.30;68.00;;;;;;5091912;28;20028;-79
2022/09/12 00:55:11;;;;;;;1.52;0.40;;;20.20;67.60;;;;;;5091549;28;20020;-78
2022/09/12 00:58:00;;;;;;;4.63;0.20;;;20.20;67.00;;;;;;5090499;28;20020;-78
2022/09/12 01:00:28;;;;;;;1.00;0.30;;;20.10;66.50;;;;;;5088441;28;20044;-78
2022/09/12 01:03:10;;;;;;;2.88;0.40;;;20.10;66.50;;;;;;5088761;28;20020;-78
2022/09/12 01:05:39;;;;;;;0.65;0.40;;;20.10;66.50;;;;;;5090251;28;20024;-78
2022/09/12 01:08:06;;;;;;;1.17;0.40;;;20.10;66.40;;;;;;5091430;28;20031;-78
2022/09/12 01:10:34;;;;;;;2.20;0.45;;;20.10;66.60;;;;;;5091612;28;20094;-78
2022/09/12 01:13:00;;;;;;;9.43;0.60;;;;;;;;;;5090870;28;20056;-78
2022/09/12 01:15:27;;;;;;;0.57;0.30;;;;;;;;;;5091111;28;20358;-78
2022/09/12 01:17:53;;;;;;;1.60;0.40;;;;;;;;;;5090937;28;20107;-79
2022/09/12 01:20:25;;;;;;;2.47;0.30;;;;;;;;;;5090736;28;20075;-78
2022/09/12 01:22:51;;;;;;;0.70;0.38;;;;;;;;;;5090814;28;20012;-77
2022/09/12 01:25:17;;;;;;;4.30;0.40;;;;;;;;;;5090615;28;20077;-78
2022/09/12 01:28:03;;;;;;;2.58;0.50;;;;;;;;;;5090534;28;20094;-78
2022/09/12 01:30:47;;;;;;;4.05;0.40;;;;;;;;;;5091494;28;20428;-77
2022/09/12 01:33:13;;;;;;;5.18;0.40;;;;;;;;;;5090542;28;20022;-78
2022/09/12 01:35:42;;;;;;;1.45;0.40;;;;;;;;;;5090359;28;20099;-79
2022/09/12 01:38:24;;;;;;;4.47;0.50;;;;;;;;;;5090794;28;20024;-78
2022/09/12 01:41:09;;;;;;;1.38;0.70;;;;;;;;;;5094088;28;20032;-78
2022/09/12 01:43:37;;;;;;;4.22;0.65;;;;;;;;;;5094533;28;20032;-79
2022/09/12 01:46:03;;;;;;;4.07;0.55;;;;;;;;;;5094989;28;20106;-79
2022/09/12 01:48:31;;;;;;;5.63;0.40;;;;;;;;;;5094397;28;20051;-78
2022/09/12 01:51:18;;;;;;;2.22;0.57;;;;;;;;;;5094277;28;20353;-79
2022/09/12 01:53:47;;;;;;;1.55;0.40;;;;;;;;;;5073263;28;20071;-79
2022/09/12 01:56:13;;;;;;;1.75;0.28;;;;;;;;;;5094110;28;20032;-79
2022/09/12 01:58:43;;;;;;;5.50;0.65;;;;;;;;;;5093877;28;20145;-78
2022/09/12 02:01:16;;;;;;;2.25;0.35;;;;;;;;;;5093969;28;20065;-79
2022/09/12 02:03:50;;;;;;;2.25;0.45;;;;;;;;;;5094414;28;20400;-78
2022/09/12 02:06:25;;;;;;;3.70;0.40;;;;;;;;;;5094691;28;20052;-77
2022/09/12 02:08:53;;;;;;;3.25;0.52;;;;;;;;;;5093940;28;20020;-78
2022/09/12 02:11:19;;;;;;;3.75;0.40;;;;;;;;;;5094979;28;20020;-78
2022/09/12 02:14:02;;;;;;;2.03;0.43;;;;;;;;;;5094198;28;20127;-78
2022/09/12 02:16:33;;;;;;;3.40;0.40;;;;;;;;;;5094170;28;20489;-78
2022/09/12 02:19:02;;;;;;;1.25;0.60;;;;;;;;;;5094144;28;20070;-78
2022/09/12 02:21:31;;;;;;;1.17;0.65;;;;;;;;;;5094352;28;20398;-78
2022/09/12 02:24:00;;;;;;;4.97;0.85;;;;;;;;;;5094378;28;20024;-78
2022/09/12 02:26:30;;;;;;;1.38;0.60;;;;;;;;;;5093380;28;20516;-78
2022/09/12 02:28:57;;;;;;;3.25;0.70;;;;;;;;;;5094154;28;20412;-78
2022/09/12 02:31:27;;;;;;;2.70;0.50;;;;;;;;;;5093224;28;20426;-79
2022/09/12 02:34:08;;;;;;;1.88;0.50;;;;;;;;;;5094310;28;20024;-79
2022/09/12 02:36:57;;;;;;;2.28;0.30;;;;;;;;;;5094014;28;20445;-79
2022/09/12 02:39:24;;;;;;;5.07;0.47;;;;;;;;;;5087802;28;20032;-79
2022/09/12 02:41:51;;;;;;;2.80;0.45;;;;;;;;;;5094386;28;20028;-77
2022/09/12 02:44:17;;;;;;;3.13;0.40;;;;;;;;;;5093823;28;20016;-78
2022/09/12 02:46:44;;;;;;;0.73;0.40;;;;;;;;;;5093871;28;20055;-77
2022/09/12 02:49:10;;;;;;;2.70;0.30;;;;;;;;;;5094040;28;20115;-78
2022/09/12 02:51:36;;;;;;;0.80;0.45;;;;;;;;;;5093259;28;20055;-79
2022/09/12 02:54:05;;;;;;;0.40;0.30;;;;;;;;;;5092886;28;20031;-79
2022/09/12 02:56:31;;;;;;;2.28;0.50;;;;;;;;;;5093308;28;20028;-78
2022/09/12 02:59:01;;;;;;;1.60;0.30;;;;;;;;;;5093851;28;20031;-77
2022/09/12 03:01:38;;;;;;;1.98;0.38;;;;;;;;;;5093032;28;20036;-78
2022/09/12 03:04:19;;;;;;;2.95;0.57;;;20.00;66.60;;;;;;5093483;28;20024;-78
2022/09/12 03:07:02;;;;;;;3.38;0.60;;;19.50;65.50;;;;;;5092556;28;20445;-79
2022/09/12 03:10:00;;;;;;;2.97;0.70;;;19.50;65.40;;;;;;5092514;28;20017;-79
2022/09/12 03:12:26;;;;;;;0.70;0.28;;;;;;;;;;5086749;28;20036;-79
2022/09/12 03:15:11;;;;;;;4.25;0.50;;;;;;;;;;5092856;28;20066;-79
2022/09/12 03:17:56;;;;;;;1.85;0.40;;;;;;;;;;5092853;28;20051;-78
2022/09/12 03:20:22;;;;;;;3.30;0.40;;;;;;;;;;5092763;28;20370;-78
2022/09/12 03:22:56;;;;;;;5.55;0.43;;;;;;;;;;5092843;28;20035;-79
2022/09/12 03:25:32;;;;;;;2.22;0.40;;;;;;;;;;5093281;28;20035;-77
2022/09/12 03:28:00;;;;;;;6.93;0.50;;;;;;;;;;5092848;28;20024;-78
2022/09/12 03:30:26;;;;;;;4.10;0.50;;;;;;;;;;5093000;28;20386;-78
2022/09/12 03:32:54;;;;;;;0.70;0.30;;;;;;;;;;5093060;28;20063;-77
2022/09/12 03:35:22;;;;;;;3.13;0.50;;;;;;;;;;5092272;28;20477;-79
2022/09/12 03:37:49;;;;;;;4.88;0.50;;;;;;;;;;5092691;28;20016;-79
2022/09/12 03:40:15;;;;;;;3.97;0.30;;;;;;;;;;5092508;28;20029;-78
2022/09/12 03:42:41;;;;;;;2.47;0.40;;;;;;;;;;5092392;28;20490;-79
2022/09/12 03:45:08;;;;;;;3.53;0.45;;;19.50;65.60;;;;;;5092596;28;20093;-76
2022/09/12 03:47:34;;;;;;;4.72;0.40;;;19.30;66.70;;;;;;5092125;28;20099;-78
2022/09/12 03:50:00;;;;;;;0.70;0.30;;;19.30;66.60;;;;;;5092561;28;20036;-78
2022/09/12 03:52:26;;;;;;;1.42;0.50;;;19.20;66.90;;;;;;5091272;28;20096;-78
2022/09/12 03:54:52;;;;;;;3.00;0.50;;;19.20;67.00;;;;;;5092317;28;20078;-79
2022/09/12 03:57:18;;;;;;;2.28;0.50;;;19.20;67.20;;;;;;5092393;28;20024;-79
2022/09/12 03:59:43;;;;;;;0.65;0.28;;;19.20;67.30;;;;;;5091723;28;20016;-79
2022/09/12 04:02:12;;;;;;;1.67;0.47;;;19.20;67.30;;;;;;5090887;28;20040;-79
2022/09/12 04:04:39;;;;;;;6.32;1.00;;;19.10;67.30;;;;;;5091999;28;20501;-78
2022/09/12 04:07:05;;;;;;;6.38;0.70;;;19.20;67.50;;;;;;5091550;28;20032;-79
2022/09/12 04:09:31;;;;;;;4.85;0.70;;;19.10;67.60;;;;;;5091071;28;20069;-78
2022/09/12 04:11:56;;;;;;;0.75;0.50;;;19.10;67.60;;;;;;5091376;28;20035;-78
2022/09/12 04:14:22;;;;;;;4.57;1.02;;;19.10;67.70;;;;;;5091164;28;20028;-78
2022/09/12 04:16:48;;;;;;;2.20;0.50;;;19.10;68.00;;;;;;5091544;28;20359;-78
2022/09/12 04:19:13;;;;;;;4.18;0.60;;;19.00;68.20;;;;;;5090996;28;20019;-78
2022/09/12 04:21:40;;;;;;;3.47;0.60;;;19.10;68.60;;;;;;5090468;28;20040;-78
2022/09/12 04:24:05;;;;;;;4.47;0.70;;;19.00;69.10;;;;;;5090332;28;20084;-76
2022/09/12 04:26:31;;;;;;;4.32;0.75;;;19.10;69.60;;;;;;5090825;28;20503;-76
2022/09/12 04:28:57;;;;;;;2.92;0.60;;;19.00;69.70;;;;;;5091069;28;20030;-79
2022/09/12 04:31:24;;;;;;;3.80;0.75;;;19.00;69.80;;;;;;5090756;28;20359;-78
2022/09/12 04:33:54;;;;;;;9.45;1.67;;;19.00;69.90;;;;;;5091028;28;20474;-77
2022/09/12 04:36:21;;;;;;;2.00;0.47;;;18.90;69.50;;;;;;5090544;28;20031;-78
2022/09/12 04:38:47;;;;;;;5.25;0.50;;;18.90;69.20;;;;;;5090970;28;20097;-77
2022/09/12 04:41:17;;;;;;;1.65;0.45;;;18.90;68.40;;;;;;5092760;28;20032;-78
2022/09/12 04:43:46;;;;;;;4.35;0.50;;;18.90;68.20;;;;;;5093042;28;20024;-78
2022/09/12 04:46:15;;;;;;;2.13;0.20;;;18.90;68.10;;;;;;5094181;28;20032;-78
2022/09/12 04:48:42;;;;;;;2.70;0.38;;;18.90;67.70;;;;;;5093257;28;20107;-77
2022/09/12 04:51:14;;;;;;;2.55;0.30;;;18.90;67.40;;;;;;5092794;28;20044;-78
2022/09/12 04:53:40;;;;;;;;;;;18.90;67.30;;;;;;5093572;28;20032;-78
2022/09/12 04:56:09;;;;;;;2.63;0.38;;;18.80;67.10;;;;;;5093147;28;20370;-76
2022/09/12 04:58:36;;;;;;;1.27;0.30;;;18.90;67.00;;;;;;5093149;28;20032;-78
2022/09/12 05:01:13;;;;;;;7.15;0.45;;;18.90;66.60;;;;;;5092875;28;20032;-78
2022/09/12 05:03:39;;;;;;;3.35;0.40;;;18.90;66.50;;;;;;5093067;28;20016;-77
2022/09/12 05:06:29;;;;;;;1.70;0.40;;;18.90;66.30;;;;;;5092933;28;20481;-78
2022/09/12 05:08:57;;;;;;;2.35;0.45;;;18.90;66.30;;;;;;5092374;28;20028;-77
2022/09/12 05:11:28;;;;;;;1.38;0.40;;;18.90;66.40;;;;;;5092842;28;20024;-77
2022/09/12 05:13:54;;;;;;;3.13;0.50;;;19.00;66.80;;;;;;5095880;28;20493;-77
2022/09/12 05:16:20;;;;;;;2.05;0.32;;;19.00;66.70;;;;;;5096719;28;20020;-77
2022/09/12 05:18:47;;;;;;;4.63;0.60;;;19.00;66.60;;;;;;5096950;28;20051;-77
2022/09/12 05:21:16;;;;;;;5.60;0.65;;;19.00;66.50;;;;;;5096551;28;20036;-77
2022/09/12 05:23:42;;;;;;;4.68;0.50;;;19.00;66.50;;;;;;5096970;28;20090;-79
2022/09/12 05:26:11;;;;;;;4.60;0.55;;;19.10;66.50;;;;;;5096854;28;20020;-77
2022/09/12 05:28:37;;;;;;;1.95;0.50;;;19.10;66.40;;;;;;5096684;28;20024;-75
2022/09/12 05:31:14;;;;;;;3.45;0.40;;;19.00;66.00;;;;;;5096832;28;20077;-73
2022/09/12 05:33:42;;;;;;;0.65;0.38;;;19.10;66.10;;;;;;5096505;28;20028;-74
2022/09/12 05:36:15;;;;;;;5.82;0.80;;;19.00;66.00;;;;;;5096552;28;20024;-73
2022/09/12 05:38:40;;;;;;;3.03;0.60;;;19.00;66.00;;;;;;5096099;28;20090;-74
2022/09/12 05:41:11;;;;;;;7.32;0.75;;;19.10;66.20;;;;;;5095940;28;20044;-75
2022/09/12 05:43:38;;;;;;;7.03;0.63;;;19.00;66.20;;;;;;5096032;28;20390;-75
2022/09/12 05:46:07;;;;;;;1.77;0.55;;;19.00;66.20;;;;;;5095725;28;20492;-75
2022/09/12 05:48:36;;;;;;;1.50;0.50;;;19.00;66.30;;;;;;5092848;28;20024;-75
2022/09/12 05:51:06;;;;;;;4.78;0.60;;;19.00;66.20;;;;;;5095165;28;20155;-74
2022/09/12 05:53:31;;;;;;;4.47;1.10;;;19.00;66.30;;;;;;5095715;28;20020;-74
2022/09/12 05:56:09;;;;;;;2.47;0.60;;;19.00;66.40;;;;;;5095572;28;20094;-75
2022/09/12 05:58:37;;;;;;;2.58;0.55;;;19.10;66.60;;;;;;5095966;28;20036;-75
2022/09/12 06:01:08;;;;;;;13.98;0.60;;;19.10;66.70;;;;;;5095742;28;20032;-75
2022/09/12 06:03:49;;;;;;;1.40;0.50;;;19.10;66.80;;;;;;5095914;28;20028;-75
2022/09/12 06:06:17;;;;;;;8.63;1.08;;;19.10;67.00;;;;;;5095948;28;20020;-75
2022/09/12 06:08:48;;;;;;;14.43;1.42;;;19.10;67.40;;;;;;5095866;28;20027;-76
2022/09/12 06:11:17;;;;;;;7.85;1.50;;;19.20;68.80;;;;;;5096346;28;20028;-75
2022/09/12 06:13:43;;;;;;;12.02;1.90;;;19.10;69.30;;;;;;5095918;28;20484;-74
2022/09/12 06:16:19;;;;;;;6.22;1.40;;;19.10;69.80;;;;;;5096012;28;20040;-74
2022/09/12 06:18:52;;;;;;;6.07;1.60;;;19.20;70.10;;;;;;5095856;28;20359;-77
2022/09/12 06:21:18;;;;;;;6.43;1.27;;;19.10;70.10;;;;;;5095866;28;20036;-75
2022/09/12 06:23:47;;;;;;;5.65;1.30;;;19.20;70.10;;;;;;5095727;28;20020;-74
2022/09/12 06:26:15;;;;;;;5.40;0.95;;;19.20;69.70;;;;;;5095375;28;20063;-78
2022/09/12 06:28:43;;;;;;;10.90;1.25;;;19.20;69.50;;;;;;5095305;28;20012;-75
2022/09/12 06:31:20;;;;;;;7.53;1.52;;;19.30;69.50;;;;;;5093661;28;20545;-76
2022/09/12 06:33:49;;;;;;;3.55;0.88;;;19.30;69.50;;;;;;5094869;28;20403;-76
2022/09/12 06:36:23;;;;;;;4.05;0.60;;;19.30;69.60;;;;;;5095510;28;20063;-76
2022/09/12 06:39:16;;;;;;;3.60;0.60;;;19.30;69.40;;;;;;5094822;28;20027;-76
2022/09/12 06:41:42;;;;;;;0.60;0.40;;;19.30;69.00;;;;;;5093056;28;20048;-76
2022/09/12 06:44:14;;;;;;;2.55;0.50;;;19.30;68.60;;;;;;5095096;28;20025;-75
2022/09/12 06:46:41;;;;;;;0.75;0.43;;;19.40;68.20;;;;;;5095199;28;20073;-76
2022/09/12 06:49:07;;;;;;;3.97;0.50;;;19.40;67.80;;;;;;5094785;28;20063;-76
2022/09/12 06:51:35;;;;;;;5.03;0.70;;;19.40;67.50;;;;;;5094831;28;20486;-76
2022/09/12 06:54:01;;;;;;;7.13;1.17;;;19.40;67.60;;;;;;5094939;28;20020;-75
2022/09/12 06:56:27;;;;;;;2.20;0.80;;;19.40;67.70;;;;;;5094923;28;20115;-75
2022/09/12 06:58:55;;;;;;;4.43;1.30;;;19.40;67.50;;;;;;5095008;28;20070;-76
2022/09/12 07:01:29;;;;;;;6.18;1.77;;;19.50;67.20;;;;;;5094869;28;20040;-75
2022/09/12 07:04:01;;;;;;;1.90;0.70;;;19.50;67.30;;;;;;5094876;28;20133;-76
2022/09/12 07:06:33;;;;;;;3.35;0.40;;;19.60;67.30;;;;;;5094724;28;20032;-76
2022/09/12 07:08:59;;;;;;;1.85;0.52;;;19.60;67.10;;;;;;5094641;28;20035;-75
2022/09/12 07:11:29;;;;;;;0.88;0.35;;;19.60;67.00;;;;;;5094684;28;20035;-76
2022/09/12 07:13:55;;;;;;;1.45;0.45;;;19.60;66.60;;;;;;5094210;28;20028;-75
2022/09/12 07:16:21;;;;;;;3.50;0.43;;;19.60;65.90;;;;;;5094502;28;20024;-75
2022/09/12 07:19:01;;;;;;;2.20;0.40;;;19.70;65.60;;;;;;5094489;28;20028;-76
2022/09/12 07:21:28;;;;;;;2.20;0.30;;;19.70;65.60;;;;;;5094393;28;20043;-76
2022/09/12 07:23:56;;;;;;;0.90;0.40;;;19.70;65.30;;;;;;5094357;28;20017;-75
2022/09/12 07:26:23;;;;;;;3.33;0.40;;;19.80;65.60;;;;;;5094420;28;20085;-76
2022/09/12 07:28:53;;;;;;;0.88;0.30;;;19.90;65.70;;;;;;5094170;28;20023;-79
2022/09/12 07:31:21;;;;;;;5.38;0.50;;;19.90;65.60;;;;;;5094323;28;20436;-75
2022/09/12 07:33:49;;;;;;;4.28;0.47;;;20.00;65.60;;;;;;5094274;28;20369;-75
2022/09/12 07:36:17;;;;;;;0.93;0.45;;;20.00;65.60;;;;;;5094096;28;20107;-74
2022/09/12 07:38:44;;;;;;;47.40;2.33;;;20.00;65.10;;;;;;5094043;28;20469;-73
2022/09/12 07:41:22;;;;;;;1.67;0.60;;;20.00;65.70;;;;;;5094097;28;20039;-73
2022/09/12 07:43:54;;;;;;;1.60;0.65;;;20.10;66.20;;;;;;5093953;28;20095;-73
2022/09/12 07:46:21;;;;;;;1.30;0.70;;;20.10;66.10;;;;;;5094098;28;20016;-73
2022/09/12 07:48:50;;;;;;;1.58;0.55;;;20.20;66.10;;;;;;5093809;28;20492;-74
2022/09/12 07:51:17;;;;;;;3.35;0.55;;;20.20;65.90;;;;;;5094129;28;20534;-73
2022/09/12 07:53:44;;;;;;;0.50;0.30;;;20.20;65.50;;;;;;5093758;28;20028;-73
2022/09/12 07:56:11;;;;;;;2.05;0.30;;;20.20;65.20;;;;;;5093767;28;20035;-73
2022/09/12 07:58:39;;;;;;;3.53;0.45;;;20.30;65.00;;;;;;5093827;28;20100;-73
2022/09/12 08:01:11;;;;;;;1.15;0.40;;;20.30;65.00;;;;;;5093500;28;20067;-73
2022/09/12 08:03:37;;;;;;;1.05;0.40;;;20.40;64.70;;;;;;5093612;28;20020;-73
2022/09/12 08:06:07;;;;;;;3.08;0.50;;;20.40;64.60;;;;;;5093583;28;20075;-73
2022/09/12 08:08:34;;;;;;;1.67;0.50;;;20.40;64.20;;;;;;5093407;28;20024;-74
2022/09/12 08:11:04;;;;;;;1.25;0.47;;;20.40;63.80;;;;;;5093577;28;20024;-73
2022/09/12 08:13:31;;;;;;;1.05;0.60;;;20.40;63.90;;;;;;5093253;28;20432;-69
2022/09/12 08:15:58;;;;;;;4.43;0.60;;;20.50;64.00;;;;;;5093594;28;20055;-69
2022/09/12 08:18:28;;;;;;;7.60;0.70;;;20.50;64.00;;;;;;5093667;28;20031;-69
2022/09/12 08:21:12;;;;;;;0.63;0.40;;;20.50;64.10;;;;;;5093506;28;20036;-68
2022/09/12 08:23:38;;;;;;;1.50;0.50;;;20.50;64.40;;;;;;5093396;28;20031;-69
2022/09/12 08:26:05;;;;;;;3.90;0.60;;;20.50;64.30;;;;;;5093109;28;20373;-68
2022/09/12 08:28:32;;;;;;;6.38;0.80;;;20.50;64.10;;;;;;5093169;28;20020;-73
2022/09/12 08:31:06;;;;;;;2.80;0.47;;;20.60;63.40;;;;;;5093262;28;20095;-68
2022/09/12 08:33:33;;;;;;;2.38;0.40;;;20.60;63.10;;;;;;5093331;28;20028;-68
2022/09/12 08:36:04;;;;;;;3.15;0.50;;;20.60;62.90;;;;;;5093005;28;20107;-68
2022/09/12 08:38:30;;;;;;;2.37;0.83;;;20.70;63.30;;;;;;5093113;28;20028;-68
2022/09/12 08:41:17;;;;;;;2.83;0.40;;;20.80;64.10;;;;;;5092909;28;20050;-69
2022/09/12 08:44:19;;;;;;;7.38;0.68;;;20.90;63.50;;;;;;5093106;28;20042;-68
2022/09/12 08:46:56;;;;;;;;;;;21.00;62.80;;;;;;5093405;28;20024;-75
2022/09/12 08:50:00;;;;;;;5.97;0.60;;;21.00;62.00;;;;;;5092136;28;19974;-68
2022/09/12 08:53:02;;;;;;;1.33;0.50;;;21.00;62.10;;;;;;5092171;28;20028;-74
2022/09/12 08:55:35;;;;;;;7.30;0.60;;;21.10;63.00;;;;;;5092942;28;20036;-68
2022/09/12 08:58:14;;;;;;;6.10;0.80;;;21.10;62.60;;;;;;5092768;28;20077;-74
2022/09/12 09:01:06;;;;;;;2.45;0.65;;;21.10;61.90;;;;;;5092831;28;20035;-68
2022/09/12 09:03:49;;;;;;;6.43;0.70;;;21.20;61.50;;;;;;5072471;28;20187;-68
2022/09/12 09:06:24;;;;;;;21.63;2.65;;;21.20;60.90;;;;;;5092852;28;20378;-69
2022/09/12 09:08:57;;;;;;;0.77;0.57;;;21.30;60.20;;;;;;5092660;28;20032;-68
2022/09/12 09:11:31;;;;;;;4.57;0.60;;;21.40;59.00;;;;;;5092768;28;20072;-69
2022/09/12 09:17:11;;;;;;;2.10;0.60;;;21.50;59.50;;;;;;5092868;28;20500;-70
2022/09/12 09:19:46;;;;;;;4.10;0.63;;;21.60;59.70;;;;;;5092434;28;20479;-69
2022/09/12 09:22:39;;;;;;;1.30;0.63;;;21.70;59.70;;;;;;5092632;28;20047;-71
2022/09/12 09:25:33;;;;;;;3.67;0.50;;;21.80;58.80;;;;;;5092862;28;20028;-70
2022/09/12 09:28:10;;;;;;;3.45;0.50;;;21.90;58.00;;;;;;5092012;28;20032;-71
2022/09/12 09:30:36;;;;;;;0.57;0.40;;;21.90;57.00;;;;;;5092378;28;20112;-73
2022/09/12 09:33:03;;;;;;;0.73;0.60;;;22.00;56.10;;;;;;5092596;28;20465;-71
2022/09/12 09:35:44;;;;;;;2.55;0.60;;;22.10;55.90;;;;;;5092819;28;20031;-71
2022/09/12 09:38:40;;;;;;;0.50;0.50;;;22.10;55.50;;;;;;5092418;28;20537;-71
2022/09/12 09:41:29;;;;;;;1.40;0.43;;;22.20;55.50;;;;;;5092469;28;20031;-71
2022/09/12 09:43:56;;;;;;;0.40;0.38;;;22.30;55.00;;;;;;5092340;28;20024;-82
2022/09/12 09:46:22;;;;;;;0.90;0.40;;;22.30;55.40;;;;;;5092672;28;20020;-81
2022/09/12 09:48:50;;;;;;;1.95;1.20;;;22.40;54.30;;;;;;5092490;28;20024;-70
2022/09/12 09:51:31;;;;;;;3.67;2.10;;;22.50;54.10;;;;;;5092370;28;20040;-71
2022/09/12 09:54:12;;;;;;;6.38;1.30;;;22.50;53.70;;;;;;5092366;28;20020;-79
2022/09/12 09:56:41;;;;;;;3.28;1.00;;;22.60;53.60;;;;;;5092541;28;20024;-71
2022/09/12 09:59:24;;;;;;;1.05;0.77;;;22.70;53.20;;;;;;5092570;28;20020;-71
2022/09/12 10:01:56;;;;;;;4.32;0.80;;;22.80;54.00;;;;;;5096390;28;20386;-70
2022/09/12 10:04:28;;;;;;;4.38;1.25;;;22.80;54.60;;;;;;5095843;28;20103;-72
2022/09/12 10:06:57;;;;;;;3.20;1.45;;;22.90;54.70;;;;;;5095864;28;20101;-71
2022/09/12 10:09:25;;;;;;;3.10;1.65;;;23.00;54.30;;;;;;5094767;28;20537;-72
2022/09/12 10:11:51;;;;;;;1.80;1.20;;;23.00;53.60;;;;;;5096044;28;20062;-73
2022/09/12 10:14:38;;;;;;;2.38;1.13;;;23.10;54.30;;;;;;5095684;28;20024;-71
2022/09/12 10:17:40;;;;;;;2.90;0.80;;;23.20;54.30;;;;;;5095845;28;20032;-71
2022/09/12 10:20:29;;;;;;;1.40;0.80;;;23.20;53.00;;;;;;5088482;28;20032;-71
2022/09/12 10:22:56;;;;;;;1.42;0.77;;;23.30;52.20;;;;;;5095668;28;20031;-71
2022/09/12 10:25:24;;;;;;;3.05;0.90;;;23.40;50.90;;;;;;5095567;28;20032;-71
2022/09/12 10:27:57;;;;;;;0.95;0.70;;;23.40;51.70;;;;;;5095883;28;20198;-75
2022/09/12 10:30:24;;;;;;;1.02;0.85;;;23.40;52.20;;;;;;5095330;28;20501;-74
2022/09/12 10:32:50;;;;;;;2.13;0.70;;;23.50;52.20;;;;;;5095059;28;20026;-71
2022/09/12 10:35:27;;;;;;;0.47;0.40;;;23.50;51.30;;;;;;5095270;28;20111;-71
2022/09/12 10:38:01;;;;;;;0.57;0.40;;;23.60;49.40;;;;;;5095584;28;20424;-72
2022/09/12 10:40:29;;;;;;;5.28;0.80;;;23.60;49.90;;;;;;5095371;28;20032;-73
2022/09/12 10:43:01;;;;;;;0.93;0.40;;;23.70;50.90;;;;;;5095436;28;20028;-78
2022/09/12 10:45:36;;;;;;;3.53;0.40;;;23.70;48.10;;;;;;5094896;28;20028;-78
2022/09/12 10:48:24;;;;;;;2.15;0.35;;;23.80;47.30;;;;;;5095441;28;20107;-72
2022/09/12 10:50:50;;;;;;;12.38;0.80;;;23.80;48.50;;;;;;5095136;28;20123;-72
2022/09/12 10:53:38;;;;;;;4.18;0.50;;;23.90;49.20;;;;;;5095016;28;20135;-71
2022/09/12 10:56:11;;;;;;;5.13;0.63;;;23.90;50.10;;;;;;5094967;28;20016;-75
2022/09/12 10:59:02;;;;;;;4.57;0.88;;;24.00;50.70;;;;;;5095011;28;20028;-76
2022/09/12 11:01:47;;;;;;;1.38;0.40;;;24.20;50.80;;;;;;5094855;28;20177;-76
2022/09/12 11:04:32;;;;;;;7.03;0.50;;;24.20;48.20;;;;;;5094670;28;20028;-74
2022/09/12 11:07:10;;;;;;;0.93;0.38;;;24.30;48.40;;;;;;5094705;28;20359;-75
2022/09/12 11:09:51;;;;;;;0.80;0.30;;;24.40;48.40;;;;;;5094773;28;20024;-76
2022/09/12 11:12:35;;;;;;;0.43;0.20;;;24.40;47.10;;;;;;5094332;28;20123;-71
2022/09/12 11:15:31;;;;;;;2.38;0.38;;;24.50;48.40;;;;;;5094520;28;20028;-71
2022/09/12 11:18:35;;;;;;;2.20;0.30;;;24.50;48.00;;;;;;5094555;28;20097;-76
2022/09/12 11:21:28;;;;;;;0.30;0.30;;;24.60;47.60;;;;;;5094448;28;20024;-75
2022/09/12 11:23:59;;;;;;;1.60;0.70;;;24.60;48.10;;;;;;5094690;28;20370;-76
2022/09/12 11:26:57;;;;;;;1.85;0.43;;;24.60;47.90;;;;;;5094469;28;20468;-72
2022/09/12 11:29:26;;;;;;;1.35;0.30;;;24.60;48.20;;;;;;5094261;28;20071;-74
2022/09/12 11:32:29;;;;;;;3.17;0.38;;;24.60;48.70;;;;;;5094298;28;20099;-71
2022/09/12 11:35:23;;;;;;;2.80;0.52;;;24.70;48.10;;;;;;5094297;28;20501;-71
2022/09/12 11:38:13;;;;;;;1.55;0.40;;;24.70;49.20;;;;;;5094065;28;20027;-76
2022/09/12 11:40:45;;;;;;;1.55;0.25;;;24.70;49.90;;;;;;5093265;28;20063;-75
2022/09/12 11:43:28;;;;;;;1.88;0.40;;;24.80;48.60;;;;;;5093853;28;20131;-76
2022/09/12 11:45:56;;;;;;;2.30;0.47;;;24.80;48.90;;;;;;5094211;28;20024;-71
2022/09/12 11:48:53;;;;;;;3.88;0.60;;;24.80;49.50;;;;;;5094198;28;20081;-70
2022/09/12 11:51:26;;;;;;;3.22;0.47;;;24.90;50.60;;;;;;5093620;28;20528;-75
2022/09/12 11:54:19;;;;;;;0.40;0.40;;;24.90;50.30;;;;;;5094093;28;20102;-74
2022/09/12 11:56:46;;;;;;;2.40;0.32;;;25.00;49.10;;;;;;5094189;28;20022;-71
2022/09/12 11:59:43;;;;;;;9.93;0.93;;;25.00;48.40;;;;;;5093988;28;20106;-72
2022/09/12 12:02:21;;;;;;;5.55;0.80;;;25.00;50.10;;;;;;5093724;28;20486;-75
2022/09/12 12:05:05;;;;;;;1.67;0.30;;;25.00;50.20;;;;;;5093881;28;20431;-72
2022/09/12 12:07:40;;;;;;;2.95;0.45;;;25.10;50.20;;;;;;5093770;28;20028;-75
2022/09/12 12:10:20;;;;;;;1.30;0.35;;;25.20;50.10;;;;;;5093895;28;20031;-71
2022/09/12 12:12:47;;;;;;;3.08;0.40;;;25.20;50.40;;;;;;5093757;28;20027;-72
2022/09/12 12:15:15;;;;;;;0.75;0.35;;;25.20;50.50;;;;;;5093261;28;20038;-72
2022/09/12 12:17:41;;;;;;;1.63;0.50;;;25.20;49.40;;;;;;5093826;28;20454;-74
2022/09/12 12:20:19;;;;;;;3.33;0.80;;;25.20;49.50;;;;;;5093323;28;20032;-77
2022/09/12 12:22:52;;;;;;;4.10;0.52;;;25.30;49.10;;;;;;5092720;28;20032;-76
2022/09/12 12:25:18;;;;;;;5.55;0.60;;;25.30;49.50;;;;;;5093230;28;20059;-72
2022/09/12 12:27:45;;;;;;;3.53;0.80;;;25.30;49.50;;;;;;5093214;28;20055;-77
2022/09/12 12:30:55;;;;;;;4.72;0.47;;;25.30;50.30;;;;;;5093074;28;20102;-77
2022/09/12 12:33:21;;;;;;;0.73;0.40;;;25.40;50.80;;;;;;5093058;28;20390;-80
2022/09/12 12:35:58;;;;;;;3.03;0.43;;;25.40;50.80;;;;;;5092963;28;20022;-74
2022/09/12 12:38:30;;;;;;;0.75;0.40;;;25.40;51.00;;;;;;5093146;28;20472;-71
2022/09/12 12:41:14;;;;;;;;;;;25.50;50.20;;;;;;5093890;28;20085;-77
2022/09/12 12:43:40;;;;;;;1.38;0.40;;;25.50;50.30;;;;;;5093150;28;19995;-72
2022/09/12 12:46:09;;;;;;;1.50;0.57;;;25.50;50.60;;;;;;5093228;28;20542;-78
2022/09/12 12:49:02;;;;;;;4.70;0.55;;;25.50;50.60;;;;;;5093004;28;20020;-72
2022/09/12 12:51:53;;;;;;;2.78;0.50;;;25.60;51.40;;;;;;5085435;28;20075;-80
2022/09/12 12:54:38;;;;;;;0.90;0.30;;;25.60;50.70;;;;;;5093115;28;20055;-79
2022/09/12 12:57:29;;;;;;;1.35;0.38;;;25.60;49.70;;;;;;5093216;28;20485;-72
2022/09/12 12:59:59;;;;;;;2.75;0.30;;;25.60;48.80;;;;;;5093326;28;20012;-77
2022/09/12 13:02:34;;;;;;;2.25;0.80;;;25.60;49.30;;;;;;5093126;28;20040;-82
2022/09/12 13:05:05;;;;;;;3.15;0.50;;;25.70;49.10;;;;;;5093026;28;20032;-71
2022/09/12 13:07:37;;;;;;;0.70;0.40;;;25.70;48.60;;;;;;5092792;28;20081;-71
2022/09/12 13:10:06;;;;;;;4.57;0.40;;;25.70;49.10;;;;;;5092880;28;20016;-71
2022/09/12 13:12:42;;;;;;;0.85;0.30;;;25.70;48.50;;;;;;5092845;28;20042;-72
2022/09/12 13:15:36;;;;;;;2.45;0.50;;;25.70;48.10;;;;;;5093250;28;20016;-78
2022/09/12 13:18:33;;;;;;;5.72;0.47;;;25.80;48.80;;;;;;5093047;28;20065;-80
2022/09/12 13:21:13;;;;;;;1.00;0.35;;;25.80;49.20;;;;;;5084479;28;20055;-79
2022/09/12 13:23:40;;;;;;;0.82;0.30;;;25.80;49.10;;;;;;5092965;28;20095;-72
2022/09/12 13:26:20;;;;;;;2.08;0.40;;;25.80;48.70;;;;;;5093458;28;20039;-72
2022/09/12 13:28:46;;;;;;;1.33;0.40;;;25.80;49.20;;;;;;5092570;28;20095;-71
2022/09/12 13:31:11;;;;;;;0.45;0.30;;;25.90;48.80;;;;;;5092799;28;20052;-72
2022/09/12 13:33:45;;;;;;;2.40;0.35;;;25.80;48.30;;;;;;5093417;28;20035;-72
2022/09/12 13:36:29;;;;;;;0.38;0.38;;;25.90;47.80;;;;;;5096657;28;20030;-72
2022/09/12 13:39:06;;;;;;;1.75;0.43;;;25.90;48.00;;;;;;5096794;28;20016;-72